sensor_id;sensor_type;location;lat;lon;timestamp;P1;durP1;ratioP1;P2;durP2;ratioP2
61038;SDS011;46919;45.816;3.104;2023-06-14T00:00:30;6.60;;;6.00;;
61038;SDS011;46919;45.816;3.104;2023-06-14T00:02:56;6.82;;;5.78;;
61038;SDS011;46919;45.816;3.104;2023-06-14T00:05:22;7.07;;;5.88;;
61038;SDS011;46919;45.816;3.104;2023-06-14T00:07:48;6.72;;;5.47;;
61038;SDS011;46919;45.816;3.104;2023-06-14T00:10:14;7.10;;;5.60;;
61038;SDS011;46919;45.816;3.104;2023-06-14T00:12:40;6.68;;;6.07;;
61038;SDS011;46919;45.816;3.104;2023-06-14T00:15:06;7.28;;;5.60;;
61038;SDS011;46919;45.816;3.104;2023-06-14T00:17:32;10.23;;;5.45;;
61038;SDS011;46919;45.816;3.104;2023-06-14T00:19:59;11.57;;;5.35;;
61038;SDS011;46919;45.816;3.104;2023-06-14T00:22:25;9.93;;;6.03;;
61038;SDS011;46919;45.816;3.104;2023-06-14T00:24:51;6.82;;;5.43;;
61038;SDS011;46919;45.816;3.104;2023-06-14T00:27:17;6.18;;;5.47;;
61038;SDS011;46919;45.816;3.104;2023-06-14T00:29:42;11.00;;;5.80;;
61038;SDS011;46919;45.816;3.104;2023-06-14T00:32:08;7.93;;;5.97;;
61038;SDS011;46919;45.816;3.104;2023-06-14T00:34:34;6.65;;;5.55;;
61038;SDS011;46919;45.816;3.104;2023-06-14T00:36:59;7.22;;;5.80;;
61038;SDS011;46919;45.816;3.104;2023-06-14T00:39:25;8.88;;;6.13;;
61038;SDS011;46919;45.816;3.104;2023-06-14T00:41:51;7.53;;;5.32;;
61038;SDS011;46919;45.816;3.104;2023-06-14T00:44:16;9.30;;;5.47;;
61038;SDS011;46919;45.816;3.104;2023-06-14T00:46:43;8.50;;;5.80;;
61038;SDS011;46919;45.816;3.104;2023-06-14T00:49:10;10.77;;;5.85;;
61038;SDS011;46919;45.816;3.104;2023-06-14T00:51:37;6.70;;;5.93;;
61038;SDS011;46919;45.816;3.104;2023-06-14T00:54:02;6.88;;;5.80;;
61038;SDS011;46919;45.816;3.104;2023-06-14T00:56:28;9.20;;;5.95;;
61038;SDS011;46919;45.816;3.104;2023-06-14T00:58:54;7.25;;;5.65;;
61038;SDS011;46919;45.816;3.104;2023-06-14T01:01:21;11.48;;;6.68;;
61038;SDS011;46919;45.816;3.104;2023-06-14T01:03:47;8.55;;;5.80;;
61038;SDS011;46919;45.816;3.104;2023-06-14T01:06:15;7.78;;;5.63;;
61038;SDS011;46919;45.816;3.104;2023-06-14T01:09:37;9.15;;;5.95;;
61038;SDS011;46919;45.816;3.104;2023-06-14T01:14:51;7.93;;;5.70;;
61038;SDS011;46919;45.816;3.104;2023-06-14T01:17:19;9.55;;;6.43;;
61038;SDS011;46919;45.816;3.104;2023-06-14T01:19:45;7.20;;;5.80;;
61038;SDS011;46919;45.816;3.104;2023-06-14T01:22:11;8.07;;;6.38;;
61038;SDS011;46919;45.816;3.104;2023-06-14T01:24:37;10.82;;;6.28;;
61038;SDS011;46919;45.816;3.104;2023-06-14T01:27:04;9.45;;;6.88;;
61038;SDS011;46919;45.816;3.104;2023-06-14T01:29:30;7.45;;;6.53;;
61038;SDS011;46919;45.816;3.104;2023-06-14T01:32:01;10.77;;;6.40;;
61038;SDS011;46919;45.816;3.104;2023-06-14T01:34:27;7.55;;;6.82;;
61038;SDS011;46919;45.816;3.104;2023-06-14T01:36:53;7.03;;;6.32;;
61038;SDS011;46919;45.816;3.104;2023-06-14T01:39:22;10.65;;;6.05;;
61038;SDS011;46919;45.816;3.104;2023-06-14T01:41:48;6.97;;;6.05;;
61038;SDS011;46919;45.816;3.104;2023-06-14T01:44:16;8.57;;;5.78;;
61038;SDS011;46919;45.816;3.104;2023-06-14T01:46:42;10.15;;;5.70;;
61038;SDS011;46919;45.816;3.104;2023-06-14T01:49:08;9.82;;;5.88;;
61038;SDS011;46919;45.816;3.104;2023-06-14T01:51:34;8.23;;;6.05;;
61038;SDS011;46919;45.816;3.104;2023-06-14T01:54:00;7.50;;;5.93;;
61038;SDS011;46919;45.816;3.104;2023-06-14T01:56:26;7.47;;;6.05;;
61038;SDS011;46919;45.816;3.104;2023-06-14T01:58:52;7.22;;;5.70;;
61038;SDS011;46919;45.816;3.104;2023-06-14T02:01:18;7.60;;;6.22;;
61038;SDS011;46919;45.816;3.104;2023-06-14T02:03:46;9.32;;;6.43;;
61038;SDS011;46919;45.816;3.104;2023-06-14T02:06:12;10.18;;;6.43;;
61038;SDS011;46919;45.816;3.104;2023-06-14T02:08:38;8.98;;;6.15;;
61038;SDS011;46919;45.816;3.104;2023-06-14T02:11:05;7.03;;;6.30;;
61038;SDS011;46919;45.816;3.104;2023-06-14T02:13:30;7.03;;;6.32;;
61038;SDS011;46919;45.816;3.104;2023-06-14T02:15:55;9.07;;;5.88;;
61038;SDS011;46919;45.816;3.104;2023-06-14T02:18:22;6.55;;;5.95;;
61038;SDS011;46919;45.816;3.104;2023-06-14T02:20:48;6.30;;;5.70;;
61038;SDS011;46919;45.816;3.104;2023-06-14T02:23:13;11.18;;;6.28;;
61038;SDS011;46919;45.816;3.104;2023-06-14T02:25:39;7.38;;;6.10;;
61038;SDS011;46919;45.816;3.104;2023-06-14T02:28:05;8.48;;;6.10;;
61038;SDS011;46919;45.816;3.104;2023-06-14T02:30:30;12.70;;;6.28;;
61038;SDS011;46919;45.816;3.104;2023-06-14T02:32:56;7.15;;;6.00;;
61038;SDS011;46919;45.816;3.104;2023-06-14T02:35:22;6.90;;;6.20;;
61038;SDS011;46919;45.816;3.104;2023-06-14T02:37:51;11.52;;;6.65;;
61038;SDS011;46919;45.816;3.104;2023-06-14T02:40:17;8.43;;;6.97;;
61038;SDS011;46919;45.816;3.104;2023-06-14T02:42:43;10.88;;;6.15;;
61038;SDS011;46919;45.816;3.104;2023-06-14T02:45:09;7.20;;;6.50;;
61038;SDS011;46919;45.816;3.104;2023-06-14T02:47:34;7.45;;;6.60;;
61038;SDS011;46919;45.816;3.104;2023-06-14T02:50:00;9.02;;;7.25;;
61038;SDS011;46919;45.816;3.104;2023-06-14T02:52:25;7.43;;;6.72;;
61038;SDS011;46919;45.816;3.104;2023-06-14T02:54:51;7.38;;;6.43;;
61038;SDS011;46919;45.816;3.104;2023-06-14T02:57:17;7.25;;;6.50;;
61038;SDS011;46919;45.816;3.104;2023-06-14T02:59:42;9.02;;;6.82;;
61038;SDS011;46919;45.816;3.104;2023-06-14T03:02:07;7.72;;;6.63;;
61038;SDS011;46919;45.816;3.104;2023-06-14T03:04:33;12.13;;;6.50;;
61038;SDS011;46919;45.816;3.104;2023-06-14T03:07:02;7.47;;;6.07;;
61038;SDS011;46919;45.816;3.104;2023-06-14T03:09:33;10.32;;;6.60;;
61038;SDS011;46919;45.816;3.104;2023-06-14T03:12:02;7.10;;;6.40;;
61038;SDS011;46919;45.816;3.104;2023-06-14T03:14:28;11.70;;;6.50;;
61038;SDS011;46919;45.816;3.104;2023-06-14T03:16:55;10.30;;;6.53;;
61038;SDS011;46919;45.816;3.104;2023-06-14T03:19:22;6.53;;;5.93;;
61038;SDS011;46919;45.816;3.104;2023-06-14T03:21:48;8.68;;;6.82;;
61038;SDS011;46919;45.816;3.104;2023-06-14T03:24:16;11.75;;;6.45;;
61038;SDS011;46919;45.816;3.104;2023-06-14T03:26:42;8.70;;;6.30;;
61038;SDS011;46919;45.816;3.104;2023-06-14T03:29:07;10.48;;;6.85;;
61038;SDS011;46919;45.816;3.104;2023-06-14T03:31:34;8.48;;;6.20;;
61038;SDS011;46919;45.816;3.104;2023-06-14T03:34:00;9.98;;;6.60;;
61038;SDS011;46919;45.816;3.104;2023-06-14T03:36:25;10.65;;;6.43;;
61038;SDS011;46919;45.816;3.104;2023-06-14T03:38:51;7.75;;;6.63;;
61038;SDS011;46919;45.816;3.104;2023-06-14T03:41:16;14.13;;;7.38;;
61038;SDS011;46919;45.816;3.104;2023-06-14T03:43:42;7.93;;;6.30;;
61038;SDS011;46919;45.816;3.104;2023-06-14T03:46:07;9.20;;;6.55;;
61038;SDS011;46919;45.816;3.104;2023-06-14T03:48:33;8.43;;;6.63;;
61038;SDS011;46919;45.816;3.104;2023-06-14T03:50:58;10.10;;;6.53;;
61038;SDS011;46919;45.816;3.104;2023-06-14T03:53:23;9.65;;;6.50;;
61038;SDS011;46919;45.816;3.104;2023-06-14T03:55:49;7.63;;;6.88;;
61038;SDS011;46919;45.816;3.104;2023-06-14T03:58:17;9.52;;;7.25;;
61038;SDS011;46919;45.816;3.104;2023-06-14T04:00:42;9.90;;;6.55;;
61038;SDS011;46919;45.816;3.104;2023-06-14T04:03:08;9.25;;;6.43;;
61038;SDS011;46919;45.816;3.104;2023-06-14T04:05:33;10.13;;;6.88;;
61038;SDS011;46919;45.816;3.104;2023-06-14T04:07:59;10.88;;;6.38;;
61038;SDS011;46919;45.816;3.104;2023-06-14T04:10:25;7.38;;;6.60;;
61038;SDS011;46919;45.816;3.104;2023-06-14T04:12:51;8.50;;;7.07;;
61038;SDS011;46919;45.816;3.104;2023-06-14T04:15:16;9.25;;;6.78;;
61038;SDS011;46919;45.816;3.104;2023-06-14T04:17:42;9.05;;;6.53;;
61038;SDS011;46919;45.816;3.104;2023-06-14T04:20:07;10.68;;;7.13;;
61038;SDS011;46919;45.816;3.104;2023-06-14T04:22:34;11.50;;;6.38;;
61038;SDS011;46919;45.816;3.104;2023-06-14T04:25:01;7.38;;;6.68;;
61038;SDS011;46919;45.816;3.104;2023-06-14T04:27:27;7.80;;;6.97;;
61038;SDS011;46919;45.816;3.104;2023-06-14T04:29:55;9.10;;;7.15;;
61038;SDS011;46919;45.816;3.104;2023-06-14T04:32:27;8.35;;;7.10;;
61038;SDS011;46919;45.816;3.104;2023-06-14T04:34:54;10.98;;;7.25;;
61038;SDS011;46919;45.816;3.104;2023-06-14T04:37:21;10.15;;;7.63;;
61038;SDS011;46919;45.816;3.104;2023-06-14T04:39:47;10.30;;;7.15;;
61038;SDS011;46919;45.816;3.104;2023-06-14T04:42:13;8.27;;;7.30;;
61038;SDS011;46919;45.816;3.104;2023-06-14T04:44:40;9.27;;;7.85;;
61038;SDS011;46919;45.816;3.104;2023-06-14T04:47:06;8.43;;;6.82;;
61038;SDS011;46919;45.816;3.104;2023-06-14T04:49:32;10.32;;;7.75;;
61038;SDS011;46919;45.816;3.104;2023-06-14T04:51:59;9.65;;;6.95;;
61038;SDS011;46919;45.816;3.104;2023-06-14T04:54:26;10.30;;;6.95;;
61038;SDS011;46919;45.816;3.104;2023-06-14T04:56:52;11.18;;;7.82;;
61038;SDS011;46919;45.816;3.104;2023-06-14T04:59:20;8.02;;;7.25;;
61038;SDS011;46919;45.816;3.104;2023-06-14T05:01:48;10.68;;;7.45;;
61038;SDS011;46919;45.816;3.104;2023-06-14T05:04:17;8.73;;;7.38;;
61038;SDS011;46919;45.816;3.104;2023-06-14T05:06:43;10.32;;;7.88;;
61038;SDS011;46919;45.816;3.104;2023-06-14T05:09:10;9.00;;;8.05;;
61038;SDS011;46919;45.816;3.104;2023-06-14T05:11:36;8.73;;;7.75;;
61038;SDS011;46919;45.816;3.104;2023-06-14T05:14:01;10.77;;;8.13;;
61038;SDS011;46919;45.816;3.104;2023-06-14T05:16:26;10.35;;;7.80;;
61038;SDS011;46919;45.816;3.104;2023-06-14T05:18:52;9.73;;;8.32;;
61038;SDS011;46919;45.816;3.104;2023-06-14T05:21:18;12.50;;;8.10;;
61038;SDS011;46919;45.816;3.104;2023-06-14T05:23:46;10.65;;;8.55;;
61038;SDS011;46919;45.816;3.104;2023-06-14T05:26:12;11.68;;;9.23;;
61038;SDS011;46919;45.816;3.104;2023-06-14T05:28:37;9.40;;;8.50;;
61038;SDS011;46919;45.816;3.104;2023-06-14T05:31:03;11.43;;;8.85;;
61038;SDS011;46919;45.816;3.104;2023-06-14T05:33:28;9.15;;;8.25;;
61038;SDS011;46919;45.816;3.104;2023-06-14T05:35:54;10.55;;;8.98;;
61038;SDS011;46919;45.816;3.104;2023-06-14T05:38:20;10.57;;;8.63;;
61038;SDS011;46919;45.816;3.104;2023-06-14T05:40:45;11.07;;;8.85;;
61038;SDS011;46919;45.816;3.104;2023-06-14T05:43:11;13.68;;;9.30;;
61038;SDS011;46919;45.816;3.104;2023-06-14T05:45:36;12.65;;;9.38;;
61038;SDS011;46919;45.816;3.104;2023-06-14T05:48:01;12.07;;;9.13;;
61038;SDS011;46919;45.816;3.104;2023-06-14T05:50:27;10.40;;;9.02;;
61038;SDS011;46919;45.816;3.104;2023-06-14T05:52:53;12.57;;;9.10;;
61038;SDS011;46919;45.816;3.104;2023-06-14T05:55:18;10.27;;;9.25;;
61038;SDS011;46919;45.816;3.104;2023-06-14T05:57:43;11.88;;;9.20;;
61038;SDS011;46919;45.816;3.104;2023-06-14T06:00:09;12.30;;;9.07;;
61038;SDS011;46919;45.816;3.104;2023-06-14T06:02:40;12.00;;;9.00;;
61038;SDS011;46919;45.816;3.104;2023-06-14T06:05:11;11.63;;;8.48;;
61038;SDS011;46919;45.816;3.104;2023-06-14T06:07:37;10.60;;;8.82;;
61038;SDS011;46919;45.816;3.104;2023-06-14T06:10:05;14.85;;;8.88;;
61038;SDS011;46919;45.816;3.104;2023-06-14T06:12:31;9.20;;;8.20;;
61038;SDS011;46919;45.816;3.104;2023-06-14T06:14:57;9.07;;;8.10;;
61038;SDS011;46919;45.816;3.104;2023-06-14T06:17:24;12.43;;;9.35;;
61038;SDS011;46919;45.816;3.104;2023-06-14T06:19:50;12.00;;;9.48;;
61038;SDS011;46919;45.816;3.104;2023-06-14T06:22:15;10.10;;;9.13;;
61038;SDS011;46919;45.816;3.104;2023-06-14T06:24:42;13.48;;;10.23;;
61038;SDS011;46919;45.816;3.104;2023-06-14T06:27:07;11.20;;;9.70;;
61038;SDS011;46919;45.816;3.104;2023-06-14T06:29:33;11.95;;;9.50;;
61038;SDS011;46919;45.816;3.104;2023-06-14T06:31:58;11.13;;;9.43;;
61038;SDS011;46919;45.816;3.104;2023-06-14T06:34:24;17.23;;;9.70;;
61038;SDS011;46919;45.816;3.104;2023-06-14T06:36:49;10.45;;;8.77;;
61038;SDS011;46919;45.816;3.104;2023-06-14T06:39:15;10.20;;;9.20;;
61038;SDS011;46919;45.816;3.104;2023-06-14T06:41:41;10.10;;;8.55;;
61038;SDS011;46919;45.816;3.104;2023-06-14T06:44:06;10.57;;;9.52;;
61038;SDS011;46919;45.816;3.104;2023-06-14T06:46:32;13.52;;;9.25;;
61038;SDS011;46919;45.816;3.104;2023-06-14T06:48:59;10.57;;;8.75;;
61038;SDS011;46919;45.816;3.104;2023-06-14T06:51:25;9.55;;;8.50;;
61038;SDS011;46919;45.816;3.104;2023-06-14T06:53:54;11.68;;;9.32;;
61038;SDS011;46919;45.816;3.104;2023-06-14T06:56:20;11.93;;;8.88;;
61038;SDS011;46919;45.816;3.104;2023-06-14T06:58:48;11.27;;;8.50;;
61038;SDS011;46919;45.816;3.104;2023-06-14T07:01:16;14.02;;;8.80;;
61038;SDS011;46919;45.816;3.104;2023-06-14T07:03:42;12.02;;;8.38;;
61038;SDS011;46919;45.816;3.104;2023-06-14T07:06:08;12.85;;;7.75;;
61038;SDS011;46919;45.816;3.104;2023-06-14T07:08:33;8.43;;;7.53;;
61038;SDS011;46919;45.816;3.104;2023-06-14T07:10:59;13.98;;;8.13;;
61038;SDS011;46919;45.816;3.104;2023-06-14T07:13:25;13.63;;;8.07;;
61038;SDS011;46919;45.816;3.104;2023-06-14T07:15:50;9.50;;;8.10;;
61038;SDS011;46919;45.816;3.104;2023-06-14T07:18:20;8.40;;;7.20;;
61038;SDS011;46919;45.816;3.104;2023-06-14T07:20:46;10.52;;;7.38;;
61038;SDS011;46919;45.816;3.104;2023-06-14T07:23:12;9.95;;;7.85;;
61038;SDS011;46919;45.816;3.104;2023-06-14T07:25:37;9.35;;;7.57;;
61038;SDS011;46919;45.816;3.104;2023-06-14T07:28:03;12.70;;;8.15;;
61038;SDS011;46919;45.816;3.104;2023-06-14T07:30:28;11.60;;;8.15;;
61038;SDS011;46919;45.816;3.104;2023-06-14T07:32:55;8.88;;;7.97;;
61038;SDS011;46919;45.816;3.104;2023-06-14T07:35:20;9.63;;;8.25;;
61038;SDS011;46919;45.816;3.104;2023-06-14T07:37:46;14.27;;;8.10;;
61038;SDS011;46919;45.816;3.104;2023-06-14T07:40:12;9.70;;;8.10;;
61038;SDS011;46919;45.816;3.104;2023-06-14T07:42:38;10.40;;;7.80;;
61038;SDS011;46919;45.816;3.104;2023-06-14T07:45:04;10.43;;;7.82;;
61038;SDS011;46919;45.816;3.104;2023-06-14T07:47:30;10.20;;;7.80;;
61038;SDS011;46919;45.816;3.104;2023-06-14T07:49:56;10.73;;;7.72;;
61038;SDS011;46919;45.816;3.104;2023-06-14T07:52:21;13.23;;;8.02;;
61038;SDS011;46919;45.816;3.104;2023-06-14T07:54:47;10.93;;;8.25;;
61038;SDS011;46919;45.816;3.104;2023-06-14T07:57:12;8.20;;;7.40;;
61038;SDS011;46919;45.816;3.104;2023-06-14T07:59:38;8.10;;;7.30;;
61038;SDS011;46919;45.816;3.104;2023-06-14T08:02:03;8.75;;;7.63;;
61038;SDS011;46919;45.816;3.104;2023-06-14T08:04:29;11.10;;;7.10;;
61038;SDS011;46919;45.816;3.104;2023-06-14T08:06:56;8.93;;;7.53;;
61038;SDS011;46919;45.816;3.104;2023-06-14T08:09:21;13.30;;;8.32;;
61038;SDS011;46919;45.816;3.104;2023-06-14T08:11:47;10.57;;;7.45;;
61038;SDS011;46919;45.816;3.104;2023-06-14T08:14:12;11.65;;;7.25;;
61038;SDS011;46919;45.816;3.104;2023-06-14T08:16:37;11.80;;;7.85;;
61038;SDS011;46919;45.816;3.104;2023-06-14T08:19:03;7.90;;;6.90;;
61038;SDS011;46919;45.816;3.104;2023-06-14T08:21:28;13.93;;;7.85;;
61038;SDS011;46919;45.816;3.104;2023-06-14T08:23:54;14.52;;;8.30;;
61038;SDS011;46919;45.816;3.104;2023-06-14T08:26:20;10.00;;;7.82;;
61038;SDS011;46919;45.816;3.104;2023-06-14T08:28:46;10.90;;;7.25;;
61038;SDS011;46919;45.816;3.104;2023-06-14T08:31:12;10.27;;;7.80;;
61038;SDS011;46919;45.816;3.104;2023-06-14T08:33:37;9.10;;;7.30;;
61038;SDS011;46919;45.816;3.104;2023-06-14T08:36:04;9.18;;;8.18;;
61038;SDS011;46919;45.816;3.104;2023-06-14T08:38:29;9.35;;;7.65;;
61038;SDS011;46919;45.816;3.104;2023-06-14T08:40:56;12.63;;;8.30;;
61038;SDS011;46919;45.816;3.104;2023-06-14T08:43:22;9.90;;;8.77;;
61038;SDS011;46919;45.816;3.104;2023-06-14T08:45:48;9.35;;;8.35;;
61038;SDS011;46919;45.816;3.104;2023-06-14T08:48:17;9.88;;;8.82;;
61038;SDS011;46919;45.816;3.104;2023-06-14T08:50:45;9.40;;;8.40;;
61038;SDS011;46919;45.816;3.104;2023-06-14T08:53:13;9.68;;;8.30;;
61038;SDS011;46919;45.816;3.104;2023-06-14T08:55:41;8.20;;;7.28;;
61038;SDS011;46919;45.816;3.104;2023-06-14T08:58:08;7.95;;;7.15;;
61038;SDS011;46919;45.816;3.104;2023-06-14T09:00:34;9.38;;;8.40;;
61038;SDS011;46919;45.816;3.104;2023-06-14T09:03:03;8.32;;;7.15;;
61038;SDS011;46919;45.816;3.104;2023-06-14T09:05:28;10.23;;;7.63;;
61038;SDS011;46919;45.816;3.104;2023-06-14T09:07:54;9.52;;;8.05;;
61038;SDS011;46919;45.816;3.104;2023-06-14T09:10:20;11.30;;;8.10;;
61038;SDS011;46919;45.816;3.104;2023-06-14T09:12:46;10.50;;;8.77;;
61038;SDS011;46919;45.816;3.104;2023-06-14T09:15:12;10.32;;;7.85;;
61038;SDS011;46919;45.816;3.104;2023-06-14T09:17:40;14.68;;;10.63;;
61038;SDS011;46919;45.816;3.104;2023-06-14T09:20:06;10.25;;;7.63;;
61038;SDS011;46919;45.816;3.104;2023-06-14T09:22:38;12.18;;;7.70;;
61038;SDS011;46919;45.816;3.104;2023-06-14T09:25:04;8.90;;;7.00;;
61038;SDS011;46919;45.816;3.104;2023-06-14T09:27:32;11.18;;;6.40;;
61038;SDS011;46919;45.816;3.104;2023-06-14T09:29:58;9.38;;;6.95;;
61038;SDS011;46919;45.816;3.104;2023-06-14T09:32:24;11.57;;;7.40;;
61038;SDS011;46919;45.816;3.104;2023-06-14T09:34:50;8.57;;;7.20;;
61038;SDS011;46919;45.816;3.104;2023-06-14T09:37:29;9.63;;;7.03;;
61038;SDS011;46919;45.816;3.104;2023-06-14T09:39:55;8.20;;;6.03;;
61038;SDS011;46919;45.816;3.104;2023-06-14T09:42:22;7.53;;;6.07;;
61038;SDS011;46919;45.816;3.104;2023-06-14T09:44:51;7.57;;;6.03;;
61038;SDS011;46919;45.816;3.104;2023-06-14T09:47:17;9.85;;;6.93;;
61038;SDS011;46919;45.816;3.104;2023-06-14T09:49:42;8.07;;;5.90;;
61038;SDS011;46919;45.816;3.104;2023-06-14T09:52:10;6.43;;;5.60;;
61038;SDS011;46919;45.816;3.104;2023-06-14T09:54:43;7.03;;;6.32;;
61038;SDS011;46919;45.816;3.104;2023-06-14T09:57:11;8.68;;;6.10;;
61038;SDS011;46919;45.816;3.104;2023-06-14T09:59:38;7.38;;;5.38;;
61038;SDS011;46919;45.816;3.104;2023-06-14T10:02:08;7.63;;;5.65;;
61038;SDS011;46919;45.816;3.104;2023-06-14T10:04:39;6.55;;;5.85;;
61038;SDS011;46919;45.816;3.104;2023-06-14T10:07:19;11.15;;;5.78;;
61038;SDS011;46919;45.816;3.104;2023-06-14T10:09:46;6.75;;;5.47;;
61038;SDS011;46919;45.816;3.104;2023-06-14T10:12:16;5.47;;;4.80;;
61038;SDS011;46919;45.816;3.104;2023-06-14T10:14:51;5.22;;;4.72;;
61038;SDS011;46919;45.816;3.104;2023-06-14T10:17:22;7.05;;;5.10;;
61038;SDS011;46919;45.816;3.104;2023-06-14T10:20:38;5.63;;;4.60;;
61038;SDS011;46919;45.816;3.104;2023-06-14T10:22:55;5.38;;;4.88;;
61038;SDS011;46919;45.816;3.104;2023-06-14T10:25:31;7.15;;;5.38;;
61038;SDS011;46919;45.816;3.104;2023-06-14T10:28:30;12.07;;;5.13;;
61038;SDS011;46919;45.816;3.104;2023-06-14T10:31:02;6.63;;;5.05;;
61038;SDS011;46919;45.816;3.104;2023-06-14T10:33:31;9.65;;;5.40;;
61038;SDS011;46919;45.816;3.104;2023-06-14T10:36:08;7.75;;;4.75;;
61038;SDS011;46919;45.816;3.104;2023-06-14T10:38:59;8.57;;;5.30;;
61038;SDS011;46919;45.816;3.104;2023-06-14T10:43:52;10.15;;;5.05;;
61038;SDS011;46919;45.816;3.104;2023-06-14T10:49:00;7.03;;;4.70;;
61038;SDS011;46919;45.816;3.104;2023-06-14T10:51:29;6.28;;;4.35;;
61038;SDS011;46919;45.816;3.104;2023-06-14T10:53:55;7.72;;;4.82;;
61038;SDS011;46919;45.816;3.104;2023-06-14T10:56:30;6.78;;;4.90;;
61038;SDS011;46919;45.816;3.104;2023-06-14T10:58:57;6.88;;;5.10;;
61038;SDS011;46919;45.816;3.104;2023-06-14T11:01:31;7.22;;;5.10;;
61038;SDS011;46919;45.816;3.104;2023-06-14T11:04:06;7.20;;;5.00;;
61038;SDS011;46919;45.816;3.104;2023-06-14T11:06:51;7.57;;;4.90;;
61038;SDS011;46919;45.816;3.104;2023-06-14T11:12:32;7.57;;;5.28;;
61038;SDS011;46919;45.816;3.104;2023-06-14T11:15:00;7.18;;;4.75;;
61038;SDS011;46919;45.816;3.104;2023-06-14T11:17:26;8.93;;;5.35;;
61038;SDS011;46919;45.816;3.104;2023-06-14T11:20:07;5.57;;;4.97;;
61038;SDS011;46919;45.816;3.104;2023-06-14T11:22:39;8.48;;;5.35;;
61038;SDS011;46919;45.816;3.104;2023-06-14T11:25:08;5.45;;;4.97;;
61038;SDS011;46919;45.816;3.104;2023-06-14T11:27:34;6.57;;;5.07;;
61038;SDS011;46919;45.816;3.104;2023-06-14T11:29:59;5.35;;;4.90;;
61038;SDS011;46919;45.816;3.104;2023-06-14T11:32:25;10.82;;;5.53;;
61038;SDS011;46919;45.816;3.104;2023-06-14T11:34:50;6.18;;;4.78;;
61038;SDS011;46919;45.816;3.104;2023-06-14T11:37:16;8.88;;;4.80;;
61038;SDS011;46919;45.816;3.104;2023-06-14T11:39:45;8.07;;;5.30;;
61038;SDS011;46919;45.816;3.104;2023-06-14T11:42:15;6.35;;;5.50;;
61038;SDS011;46919;45.816;3.104;2023-06-14T11:44:40;6.63;;;5.03;;
61038;SDS011;46919;45.816;3.104;2023-06-14T11:47:06;11.57;;;5.30;;
61038;SDS011;46919;45.816;3.104;2023-06-14T11:49:35;6.22;;;5.30;;
61038;SDS011;46919;45.816;3.104;2023-06-14T11:52:01;8.75;;;5.03;;
61038;SDS011;46919;45.816;3.104;2023-06-14T11:54:26;8.57;;;4.78;;
61038;SDS011;46919;45.816;3.104;2023-06-14T11:56:52;7.35;;;4.68;;
61038;SDS011;46919;45.816;3.104;2023-06-14T11:59:18;5.40;;;4.90;;
61038;SDS011;46919;45.816;3.104;2023-06-14T12:01:45;17.20;;;5.20;;
61038;SDS011;46919;45.816;3.104;2023-06-14T12:04:10;8.05;;;5.13;;
61038;SDS011;46919;45.816;3.104;2023-06-14T12:06:36;5.60;;;5.00;;
61038;SDS011;46919;45.816;3.104;2023-06-14T12:09:04;6.38;;;4.70;;
61038;SDS011;46919;45.816;3.104;2023-06-14T12:11:35;8.05;;;5.07;;
61038;SDS011;46919;45.816;3.104;2023-06-14T12:14:04;8.85;;;4.85;;
61038;SDS011;46919;45.816;3.104;2023-06-14T12:16:31;5.70;;;4.85;;
61038;SDS011;46919;45.816;3.104;2023-06-14T12:19:00;6.35;;;4.60;;
61038;SDS011;46919;45.816;3.104;2023-06-14T12:21:26;9.13;;;4.68;;
61038;SDS011;46919;45.816;3.104;2023-06-14T12:23:53;7.97;;;4.50;;
61038;SDS011;46919;45.816;3.104;2023-06-14T12:26:19;6.63;;;4.32;;
61038;SDS011;46919;45.816;3.104;2023-06-14T12:28:45;6.63;;;4.78;;
61038;SDS011;46919;45.816;3.104;2023-06-14T12:31:12;7.50;;;4.57;;
61038;SDS011;46919;45.816;3.104;2023-06-14T12:33:39;6.18;;;4.60;;
61038;SDS011;46919;45.816;3.104;2023-06-14T12:36:06;7.32;;;4.80;;
61038;SDS011;46919;45.816;3.104;2023-06-14T12:38:32;5.28;;;4.78;;
61038;SDS011;46919;45.816;3.104;2023-06-14T12:40:58;6.13;;;4.40;;
61038;SDS011;46919;45.816;3.104;2023-06-14T12:43:24;6.97;;;4.95;;
61038;SDS011;46919;45.816;3.104;2023-06-14T12:45:49;6.30;;;4.20;;
61038;SDS011;46919;45.816;3.104;2023-06-14T12:48:15;7.63;;;5.00;;
61038;SDS011;46919;45.816;3.104;2023-06-14T12:50:40;8.90;;;4.40;;
61038;SDS011;46919;45.816;3.104;2023-06-14T12:53:06;5.63;;;4.07;;
61038;SDS011;46919;45.816;3.104;2023-06-14T12:55:32;5.07;;;4.22;;
61038;SDS011;46919;45.816;3.104;2023-06-14T12:57:57;5.90;;;4.10;;
61038;SDS011;46919;45.816;3.104;2023-06-14T13:00:23;5.28;;;3.90;;
61038;SDS011;46919;45.816;3.104;2023-06-14T13:02:50;5.70;;;4.10;;
61038;SDS011;46919;45.816;3.104;2023-06-14T13:05:16;6.55;;;3.92;;
61038;SDS011;46919;45.816;3.104;2023-06-14T13:07:42;5.75;;;4.32;;
61038;SDS011;46919;45.816;3.104;2023-06-14T13:10:08;6.68;;;4.28;;
61038;SDS011;46919;45.816;3.104;2023-06-14T13:12:33;4.93;;;4.10;;
61038;SDS011;46919;45.816;3.104;2023-06-14T13:14:59;7.32;;;4.03;;
61038;SDS011;46919;45.816;3.104;2023-06-14T13:17:24;6.63;;;4.28;;
61038;SDS011;46919;45.816;3.104;2023-06-14T13:19:50;6.85;;;4.10;;
61038;SDS011;46919;45.816;3.104;2023-06-14T13:22:15;6.70;;;4.30;;
61038;SDS011;46919;45.816;3.104;2023-06-14T13:24:40;4.93;;;4.05;;
61038;SDS011;46919;45.816;3.104;2023-06-14T13:27:06;4.88;;;4.20;;
61038;SDS011;46919;45.816;3.104;2023-06-14T13:29:31;5.07;;;3.97;;
61038;SDS011;46919;45.816;3.104;2023-06-14T13:31:58;6.43;;;4.55;;
61038;SDS011;46919;45.816;3.104;2023-06-14T13:34:24;7.43;;;4.35;;
61038;SDS011;46919;45.816;3.104;2023-06-14T13:36:50;8.98;;;4.28;;
61038;SDS011;46919;45.816;3.104;2023-06-14T13:39:15;5.78;;;4.40;;
61038;SDS011;46919;45.816;3.104;2023-06-14T13:41:41;7.53;;;4.18;;
61038;SDS011;46919;45.816;3.104;2023-06-14T13:44:06;6.88;;;4.10;;
61038;SDS011;46919;45.816;3.104;2023-06-14T13:46:32;7.25;;;4.40;;
61038;SDS011;46919;45.816;3.104;2023-06-14T13:48:57;5.32;;;4.28;;
61038;SDS011;46919;45.816;3.104;2023-06-14T13:51:23;8.68;;;4.93;;
61038;SDS011;46919;45.816;3.104;2023-06-14T13:53:49;8.88;;;5.60;;
61038;SDS011;46919;45.816;3.104;2023-06-14T13:56:15;6.38;;;4.72;;
61038;SDS011;46919;45.816;3.104;2023-06-14T13:58:41;12.65;;;6.05;;
61038;SDS011;46919;45.816;3.104;2023-06-14T14:01:07;5.10;;;3.95;;
61038;SDS011;46919;45.816;3.104;2023-06-14T14:03:33;8.45;;;4.43;;
61038;SDS011;46919;45.816;3.104;2023-06-14T14:06:00;5.03;;;4.28;;
61038;SDS011;46919;45.816;3.104;2023-06-14T14:08:26;5.10;;;4.18;;
61038;SDS011;46919;45.816;3.104;2023-06-14T14:10:51;7.68;;;4.28;;
61038;SDS011;46919;45.816;3.104;2023-06-14T14:13:17;8.23;;;4.60;;
61038;SDS011;46919;45.816;3.104;2023-06-14T14:15:42;7.85;;;4.13;;
61038;SDS011;46919;45.816;3.104;2023-06-14T14:18:08;7.43;;;4.18;;
61038;SDS011;46919;45.816;3.104;2023-06-14T14:20:34;5.28;;;4.05;;
61038;SDS011;46919;45.816;3.104;2023-06-14T14:23:00;5.95;;;4.38;;
61038;SDS011;46919;45.816;3.104;2023-06-14T14:25:25;10.15;;;4.32;;
61038;SDS011;46919;45.816;3.104;2023-06-14T14:27:51;7.80;;;4.43;;
61038;SDS011;46919;45.816;3.104;2023-06-14T14:30:16;7.13;;;4.00;;
61038;SDS011;46919;45.816;3.104;2023-06-14T14:32:44;8.68;;;4.05;;
61038;SDS011;46919;45.816;3.104;2023-06-14T14:35:09;7.93;;;4.60;;
61038;SDS011;46919;45.816;3.104;2023-06-14T14:37:35;7.68;;;4.20;;
61038;SDS011;46919;45.816;3.104;2023-06-14T14:40:01;6.20;;;4.70;;
61038;SDS011;46919;45.816;3.104;2023-06-14T14:42:27;7.93;;;4.07;;
61038;SDS011;46919;45.816;3.104;2023-06-14T14:44:53;6.60;;;4.18;;
61038;SDS011;46919;45.816;3.104;2023-06-14T14:47:18;6.75;;;3.60;;
61038;SDS011;46919;45.816;3.104;2023-06-14T14:49:43;7.03;;;4.45;;
61038;SDS011;46919;45.816;3.104;2023-06-14T14:52:09;7.45;;;4.38;;